createdAt,value
2022-09-11T00:01:33.699Z,100884.50
2022-09-11T00:04:00.582Z,100885.75
2022-09-11T00:06:30.222Z,100882.59
2022-09-11T00:09:03.898Z,100882.19
2022-09-11T00:11:33.693Z,100882.00
2022-09-11T00:14:00.879Z,100885.31
2022-09-11T00:16:30.667Z,100890.31
2022-09-11T00:19:00.373Z,100889.78
2022-09-11T00:21:28.169Z,100895.47
2022-09-11T00:23:55.051Z,100890.81
2022-09-11T00:26:22.290Z,100897.47
2022-09-11T00:28:50.657Z,100895.53
2022-09-11T00:31:20.164Z,100886.56
2022-09-11T00:33:47.084Z,100885.69
2022-09-11T00:36:16.630Z,100887.56
2022-09-11T00:38:43.726Z,100884.91
2022-09-11T00:41:14.591Z,100883.88
2022-09-11T00:44:19.010Z,100889.47
2022-09-11T00:46:58.511Z,100883.19
2022-09-11T00:49:36.728Z,100883.56
2022-09-11T00:52:10.296Z,100882.59
2022-09-11T00:54:49.714Z,100877.38
2022-09-11T00:57:18.790Z,100883.19
2022-09-11T00:59:47.621Z,100888.63
2022-09-11T01:02:19.391Z,100886.47
2022-09-11T01:04:45.960Z,100891.88
2022-09-11T01:07:15.577Z,100897.72
2022-09-11T01:09:43.131Z,100897.72
2022-09-11T01:12:15.566Z,100897.91
2022-09-11T01:14:53.096Z,100898.28
2022-09-11T01:17:29.852Z,100903.53
2022-09-11T01:19:59.358Z,100890.53
2022-09-11T01:22:50.059Z,100889.28
2022-09-11T01:25:44.573Z,100893.13
2022-09-11T01:28:15.881Z,100894.94
2022-09-11T01:30:55.323Z,100890.75
2022-09-11T01:33:36.340Z,100900.09
2022-09-11T01:36:10.710Z,100906.16
2022-09-11T01:38:46.778Z,100900.03
2022-09-11T01:41:23.070Z,100899.41
2022-09-11T01:43:56.708Z,100896.50
2022-09-11T01:46:27.123Z,100902.94
2022-09-11T01:49:18.068Z,100900.50
2022-09-11T01:51:48.554Z,100896.28
2022-09-11T01:54:19.436Z,100898.16
2022-09-11T01:56:51.916Z,100901.84
2022-09-11T01:59:26.149Z,100895.97
2022-09-11T02:01:59.579Z,100902.41
2022-09-11T02:04:35.357Z,100896.63
2022-09-11T02:07:11.066Z,100893.78
2022-09-11T02:09:42.490Z,100897.78
2022-09-11T02:12:14.086Z,100895.53
2022-09-11T02:14:44.848Z,100896.09
2022-09-11T02:17:43.735Z,100906.03
2022-09-11T02:20:11.120Z,100900.00
2022-09-11T02:22:37.970Z,100912.09
2022-09-11T02:25:05.568Z,100916.34
2022-09-11T02:27:33.678Z,100907.41
2022-09-11T02:30:01.045Z,100908.16
2022-09-11T02:32:27.928Z,100913.97
2022-09-11T02:34:55.596Z,100912.69
2022-09-11T02:37:41.131Z,100913.25
2022-09-11T02:40:47.623Z,100909.91
2022-09-11T02:43:31.816Z,100908.88
2022-09-11T02:46:19.338Z,100917.00
2022-09-11T02:49:06.848Z,100913.63
2022-09-11T02:51:55.926Z,100900.06
2022-09-11T02:54:44.119Z,100918.19
2022-09-11T02:57:22.026Z,100911.94
2022-09-11T02:59:55.693Z,100911.94
2022-09-11T03:02:24.313Z,100916.59
2022-09-11T03:04:50.941Z,100917.00
2022-09-11T03:07:17.518Z,100911.66
2022-09-11T03:09:44.111Z,100912.13
2022-09-11T03:12:10.826Z,100907.69
2022-09-11T03:14:38.166Z,100911.41
2022-09-11T03:17:05.429Z,100910.13
2022-09-11T03:19:32.038Z,100909.28
2022-09-11T03:21:58.803Z,100910.56
2022-09-11T03:24:26.475Z,100919.72
2022-09-11T03:26:53.065Z,100909.53
2022-09-11T03:29:19.725Z,100928.09
2022-09-11T03:31:47.394Z,100919.97
2022-09-11T03:34:14.542Z,100926.19
2022-09-11T03:36:41.264Z,100925.16
2022-09-11T03:39:07.873Z,100922.50
2022-09-11T03:41:34.443Z,100923.91
2022-09-11T03:44:01.147Z,100937.41
2022-09-11T03:46:27.921Z,100938.88
2022-09-11T03:48:54.995Z,100938.88
2022-09-11T03:51:21.634Z,100939.41
2022-09-11T03:53:48.274Z,100941.59
2022-09-11T03:56:15.243Z,100944.41
2022-09-11T03:58:43.220Z,100948.44
2022-09-11T04:01:15.483Z,100944.69
2022-09-11T04:03:42.794Z,100945.09
2022-09-11T04:06:10.192Z,100945.81
2022-09-11T04:08:37.047Z,100944.16
2022-09-11T04:11:05.884Z,100949.56
2022-09-11T04:13:35.748Z,100952.50
2022-09-11T04:16:07.859Z,100946.06
2022-09-11T04:18:36.627Z,100948.72
2022-09-11T04:21:11.950Z,100950.75
2022-09-11T04:23:39.959Z,100960.09
2022-09-11T04:26:18.189Z,100953.47
2022-09-11T04:28:45.532Z,100957.97
2022-09-11T04:31:13.703Z,100957.47
2022-09-11T04:33:40.807Z,100957.47
2022-09-11T04:36:10.117Z,100964.13
2022-09-11T04:38:36.825Z,100966.00
2022-09-11T04:41:04.591Z,100972.25
2022-09-11T04:43:31.885Z,100972.34
2022-09-11T04:46:11.424Z,100976.81
2022-09-11T04:48:46.925Z,100976.44
2022-09-11T04:51:25.442Z,100986.25
2022-09-11T04:53:55.040Z,100983.91
2022-09-11T04:56:21.604Z,100989.41
2022-09-11T04:58:55.212Z,100988.75
2022-09-11T05:01:22.823Z,100994.81
2022-09-11T05:03:49.537Z,100997.72
2022-09-11T05:06:16.496Z,101004.34
2022-09-11T05:08:44.737Z,101006.38
2022-09-11T05:11:13.790Z,101004.72
2022-09-11T05:13:41.352Z,101017.00
2022-09-11T05:16:10.998Z,101016.00
2022-09-11T05:18:40.044Z,101014.78
2022-09-11T05:21:16.746Z,101016.84
2022-09-11T05:23:47.937Z,101027.28
2022-09-11T05:26:17.511Z,101028.78
2022-09-11T05:28:44.546Z,101034.84
2022-09-11T05:31:13.606Z,101039.91
2022-09-11T05:33:40.483Z,101048.38
2022-09-11T05:36:07.651Z,101041.09
2022-09-11T05:38:36.584Z,101048.84
2022-09-11T05:41:06.417Z,101048.38
2022-09-11T05:43:34.165Z,101051.06
2022-09-11T05:46:01.885Z,101060.59
2022-09-11T05:48:29.598Z,101067.69
2022-09-11T05:50:59.624Z,101066.09
2022-09-11T05:53:28.294Z,101067.78
2022-09-11T05:55:55.245Z,101065.72
2022-09-11T05:58:22.870Z,101074.03
2022-09-11T06:00:49.583Z,101073.00
2022-09-11T06:03:17.533Z,101081.13
2022-09-11T06:05:44.135Z,101089.44
2022-09-11T06:08:11.922Z,101084.03
2022-09-11T06:10:47.818Z,101094.66
2022-09-11T06:13:17.885Z,101094.84
2022-09-11T06:15:49.119Z,101102.41
2022-09-11T06:18:16.510Z,101104.28
2022-09-11T06:20:43.692Z,101103.44
2022-09-11T06:23:11.518Z,101102.97
2022-09-11T06:25:39.118Z,101107.53
2022-09-11T06:28:05.789Z,101103.72
2022-09-11T06:30:33.488Z,101114.94
2022-09-11T06:33:00.089Z,101103.00
2022-09-11T06:35:26.665Z,101110.31
2022-09-11T06:37:53.273Z,101106.78
2022-09-11T06:40:19.877Z,101109.22
2022-09-11T06:42:46.463Z,101121.44
2022-09-11T06:45:13.122Z,101122.03
2022-09-11T06:47:39.669Z,101123.94
2022-09-11T06:50:06.759Z,101129.97
2022-09-11T06:52:35.114Z,101119.53
2022-09-11T06:55:02.271Z,101123.09
2022-09-11T06:57:28.861Z,101130.50
2022-09-11T06:59:57.886Z,101129.22
2022-09-11T07:02:25.573Z,101127.16
2022-09-11T07:04:53.284Z,101129.81
2022-09-11T07:07:19.872Z,101126.66
2022-09-11T07:09:46.443Z,101124.16
2022-09-11T07:12:13.015Z,101132.09
2022-09-11T07:14:40.561Z,101132.91
2022-09-11T07:17:07.313Z,101130.59
2022-09-11T07:19:33.890Z,101125.78
2022-09-11T07:22:00.572Z,101123.72
2022-09-11T07:24:27.147Z,101133.72
2022-09-11T07:26:54.889Z,101128.94
2022-09-11T07:29:22.349Z,101128.72
2022-09-11T07:31:49.050Z,101132.09
2022-09-11T07:34:15.693Z,101131.84
2022-09-11T07:36:42.734Z,101132.69
2022-09-11T07:39:09.480Z,101137.06
2022-09-11T07:41:36.117Z,101138.94
2022-09-11T07:44:07.121Z,101135.84
2022-09-11T07:46:34.180Z,101149.78
2022-09-11T07:49:02.875Z,101143.97
2022-09-11T07:51:29.613Z,101138.75
2022-09-11T07:53:57.963Z,101135.41
2022-09-11T07:56:25.882Z,101131.53
2022-09-11T07:58:55.008Z,101141.41
2022-09-11T08:01:27.443Z,101141.03
2022-09-11T08:03:59.002Z,101137.56
2022-09-11T08:06:27.281Z,101143.16
2022-09-11T08:08:55.749Z,101143.16
2022-09-11T08:11:22.966Z,101155.72
2022-09-11T08:13:54.257Z,101157.31
2022-09-11T08:16:24.699Z,101157.91
2022-09-11T08:18:54.879Z,101161.91
2022-09-11T08:21:23.118Z,101155.19
2022-09-11T08:23:50.136Z,101162.56
2022-09-11T08:26:21.677Z,101165.28
2022-09-11T08:28:50.726Z,101172.25
2022-09-11T08:31:20.103Z,101168.00
2022-09-11T08:33:49.282Z,101172.75
2022-09-11T08:36:16.179Z,101188.28
2022-09-11T08:38:44.124Z,101183.69
2022-09-11T08:41:20.053Z,101189.81
2022-09-11T08:44:01.596Z,101190.38
2022-09-11T08:46:37.169Z,101188.81
2022-09-11T08:49:19.442Z,101194.03
2022-09-11T08:51:48.965Z,101191.78
2022-09-11T08:54:37.951Z,101199.00
2022-09-11T08:57:05.546Z,101197.00
2022-09-11T08:59:50.425Z,101205.59
2022-09-11T09:02:25.412Z,101204.09
2022-09-11T09:05:06.888Z,101199.84
2022-09-11T09:08:04.859Z,101206.19
2022-09-11T09:10:39.369Z,101198.09
2022-09-11T09:13:21.019Z,101195.06
2022-09-11T09:16:09.852Z,101198.69
2022-09-11T09:18:56.695Z,101202.34
2022-09-11T09:21:42.150Z,101216.28
2022-09-11T09:24:19.501Z,101212.75
2022-09-11T09:26:52.708Z,101208.16
2022-09-11T09:29:22.923Z,101207.72
2022-09-11T09:31:59.701Z,101202.75
2022-09-11T09:34:31.187Z,101212.00
2022-09-11T09:37:21.252Z,101208.47
2022-09-11T09:39:48.909Z,101209.94
2022-09-11T09:42:24.572Z,101212.47
2022-09-11T09:45:07.350Z,101208.66
2022-09-11T09:47:33.937Z,101203.50
2022-09-11T09:50:00.688Z,101202.41
2022-09-11T09:52:35.381Z,101213.97
2022-09-11T09:55:13.689Z,101208.50
2022-09-11T09:57:40.414Z,101214.59
2022-09-11T10:00:17.509Z,101206.84
2022-09-11T10:02:56.493Z,101210.78
2022-09-11T10:05:32.508Z,101211.72
2022-09-11T10:08:05.430Z,101224.03
2022-09-11T10:10:36.372Z,101225.84
2022-09-11T10:13:18.934Z,101218.34
2022-09-11T10:15:48.782Z,101222.56
2022-09-11T10:18:33.618Z,101224.22
2022-09-11T10:21:12.300Z,101219.28
2022-09-11T10:23:57.911Z,101217.53
2022-09-11T10:26:27.177Z,101230.78
2022-09-11T10:28:56.199Z,101226.00
2022-09-11T10:31:23.010Z,101224.31
2022-09-11T10:34:00.573Z,101221.19
2022-09-11T10:36:29.094Z,101223.88
2022-09-11T10:38:58.812Z,101224.66
2022-09-11T10:41:27.801Z,101234.03
2022-09-11T10:44:01.516Z,101230.69
2022-09-11T10:46:40.738Z,101233.00
2022-09-11T10:49:09.940Z,101231.00
2022-09-11T10:51:40.133Z,101227.75
2022-09-11T10:54:45.909Z,101230.91
2022-09-11T10:57:27.257Z,101238.59
2022-09-11T11:00:15.106Z,101232.53
2022-09-11T11:02:46.430Z,101235.31
2022-09-11T11:05:34.834Z,101234.84
2022-09-11T11:08:21.564Z,101240.53
2022-09-11T11:11:18.039Z,101238.16
2022-09-11T11:14:15.724Z,101237.72
2022-09-11T11:17:09.142Z,101231.69
2022-09-11T11:19:42.705Z,101238.88
2022-09-11T11:22:42.507Z,101236.19
2022-09-11T11:25:14.979Z,101231.38
2022-09-11T11:28:00.533Z,101240.47
2022-09-11T11:30:41.932Z,101243.25
2022-09-11T11:33:46.999Z,101237.19
2022-09-11T11:36:28.887Z,101243.53
2022-09-11T11:39:06.790Z,101246.22
2022-09-11T11:41:44.591Z,101236.88
2022-09-11T11:44:25.662Z,101238.59
2022-09-11T11:47:00.530Z,101241.03
2022-09-11T11:49:39.213Z,101243.06
2022-09-11T11:52:19.263Z,101244.06
2022-09-11T11:54:53.750Z,101235.72
2022-09-11T11:57:24.100Z,101245.94
2022-09-11T12:00:07.243Z,101241.06
2022-09-11T12:02:57.638Z,101243.28
2022-09-11T12:05:31.813Z,101239.13
2022-09-11T12:07:58.696Z,101249.22
2022-09-11T12:10:56.503Z,101241.88
2022-09-11T12:13:30.400Z,101247.72
2022-09-11T12:16:12.117Z,101238.88
2022-09-11T12:18:39.098Z,101242.69
2022-09-11T12:21:23.662Z,101248.25
2022-09-11T12:23:50.194Z,101241.31
2022-09-11T12:26:26.866Z,101244.25
2022-09-11T12:29:12.280Z,101238.50
2022-09-11T12:31:50.824Z,101235.19
2022-09-11T12:34:46.398Z,101239.03
2022-09-11T12:37:22.900Z,101238.06
2022-09-11T12:39:55.856Z,101235.19
2022-09-11T12:42:23.035Z,101245.09
2022-09-11T12:44:49.571Z,101239.63
2022-09-11T12:47:48.349Z,101241.38
2022-09-11T12:50:21.758Z,101238.41
2022-09-11T12:53:02.261Z,101234.03
2022-09-11T12:55:33.607Z,101233.19
2022-09-11T12:58:07.249Z,101224.19
2022-09-11T13:00:42.496Z,101227.88
2022-09-11T13:03:22.277Z,101230.53
2022-09-11T13:06:16.070Z,101227.16
2022-09-11T13:09:02.338Z,101235.47
2022-09-11T13:11:45.987Z,101239.31
2022-09-11T13:14:28.037Z,101239.31
2022-09-11T13:16:59.885Z,101231.78
2022-09-11T13:19:34.714Z,101234.09
2022-09-11T13:22:01.662Z,101228.19
2022-09-11T13:24:31.066Z,101223.66
2022-09-11T13:27:05.834Z,101226.19
2022-09-11T13:29:35.554Z,101220.91
2022-09-11T13:32:11.097Z,101220.09
2022-09-11T13:34:38.594Z,101226.38
2022-09-11T13:37:14.705Z,101216.31
2022-09-11T13:39:45.922Z,101214.63
2022-09-11T13:42:18.057Z,101217.34
2022-09-11T13:44:49.194Z,101216.53
2022-09-11T13:47:27.461Z,101227.03
2022-09-11T13:50:00.994Z,101226.41
2022-09-11T13:52:31.381Z,101228.69
2022-09-11T13:55:03.778Z,101225.53
2022-09-11T13:57:32.073Z,101219.69
2022-09-11T14:00:00.354Z,101234.38
2022-09-11T14:02:42.179Z,101231.59
2022-09-11T14:05:23.586Z,101230.94
2022-09-11T14:07:58.741Z,101229.66
2022-09-11T14:10:30.271Z,101232.59
2022-09-11T14:13:41.983Z,101228.66
2022-09-11T14:16:13.395Z,101229.50
2022-09-11T14:18:55.668Z,101234.25
2022-09-11T14:21:32.575Z,101234.25
2022-09-11T14:24:00.086Z,101237.31
2022-09-11T14:26:35.747Z,101237.53
2022-09-11T14:29:23.001Z,101231.03
2022-09-11T14:31:51.791Z,101229.13
2022-09-11T14:34:29.075Z,101237.03
2022-09-11T14:37:10.162Z,101240.41
2022-09-11T14:39:47.773Z,101239.16
2022-09-11T14:42:21.187Z,101229.13
2022-09-11T14:44:47.808Z,101231.63
2022-09-11T14:47:19.777Z,101233.91
2022-09-11T14:49:48.403Z,101231.59
2022-09-11T14:52:17.339Z,101231.84
2022-09-11T14:54:44.741Z,101232.44
2022-09-11T14:57:20.432Z,101234.53
2022-09-11T14:59:47.499Z,101236.28
2022-09-11T15:02:25.818Z,101240.53
2022-09-11T15:04:54.362Z,101237.38
2022-09-11T15:07:24.251Z,101239.28
2022-09-11T15:09:52.821Z,101237.81
2022-09-11T15:12:19.495Z,101230.09
2022-09-11T15:14:56.232Z,101230.94
2022-09-11T15:17:25.354Z,101228.47
2022-09-11T15:19:52.812Z,101227.00
2022-09-11T15:22:19.741Z,101224.25
2022-09-11T15:24:47.162Z,101235.78
2022-09-11T15:27:13.910Z,101239.13
2022-09-11T15:29:42.540Z,101248.94
2022-09-11T15:32:09.885Z,101243.31
2022-09-11T15:34:38.742Z,101240.59
2022-09-11T15:37:05.981Z,101243.69
2022-09-11T15:39:33.994Z,101243.47
2022-09-11T15:42:01.988Z,101236.75
2022-09-11T15:44:29.182Z,101248.00
2022-09-11T15:46:58.498Z,101247.31
2022-09-11T15:49:28.441Z,101247.06
2022-09-11T15:51:56.358Z,101244.91
2022-09-11T15:54:23.466Z,101246.53
2022-09-11T15:56:51.166Z,101250.53
2022-09-11T15:59:18.323Z,101246.88
2022-09-11T16:01:45.552Z,101252.31
2022-09-11T16:04:14.919Z,101263.19
2022-09-11T16:06:45.553Z,101254.41
2022-09-11T16:09:14.521Z,101256.63
2022-09-11T16:11:41.606Z,101254.13
2022-09-11T16:14:14.636Z,101256.19
2022-09-11T16:16:41.221Z,101257.88
2022-09-11T16:19:07.850Z,101250.75
2022-09-11T16:21:34.427Z,101251.31
2022-09-11T16:24:01.912Z,101260.09
2022-09-11T16:26:29.146Z,101253.84
2022-09-11T16:28:55.799Z,101260.38
2022-09-11T16:31:22.470Z,101263.72
2022-09-11T16:33:50.320Z,101268.50
2022-09-11T16:36:21.509Z,101272.72
2022-09-11T16:38:52.453Z,101262.81
2022-09-11T16:41:21.091Z,101275.38
2022-09-11T16:43:50.293Z,101277.88
2022-09-11T16:46:22.974Z,101285.84
2022-09-11T16:48:54.411Z,101276.53
2022-09-11T16:51:23.406Z,101272.56
2022-09-11T16:53:51.193Z,101267.75
2022-09-11T16:56:20.592Z,101270.19
2022-09-11T16:58:47.574Z,101267.25
2022-09-11T17:01:22.794Z,101275.91
2022-09-11T17:03:51.629Z,101266.13
2022-09-11T17:06:20.185Z,101269.44
2022-09-11T17:08:50.455Z,101271.31
2022-09-11T17:11:19.217Z,101273.28
2022-09-11T17:13:46.666Z,101269.97
2022-09-11T17:16:16.960Z,101272.59
2022-09-11T17:18:48.464Z,101270.66
2022-09-11T17:21:16.354Z,101262.25
2022-09-11T17:23:43.314Z,101267.47
2022-09-11T17:26:15.296Z,101277.03
2022-09-11T17:28:43.597Z,101270.75
2022-09-11T17:31:14.077Z,101273.88
2022-09-11T17:33:40.882Z,101265.44
2022-09-11T17:36:09.957Z,101275.91
2022-09-11T17:38:37.410Z,101278.22
2022-09-11T17:41:06.245Z,101278.31
2022-09-11T17:43:33.616Z,101287.00
2022-09-11T17:46:10.409Z,101282.06
2022-09-11T17:48:39.206Z,101291.63
2022-09-11T17:51:11.114Z,101293.28
2022-09-11T17:53:39.569Z,101292.91
2022-09-11T17:56:09.852Z,101295.41
2022-09-11T17:58:37.558Z,101291.44
2022-09-11T18:01:05.256Z,101290.78
2022-09-11T18:03:33.493Z,101295.91
2022-09-11T18:06:01.273Z,101300.22
2022-09-11T18:08:29.209Z,101306.56
2022-09-11T18:11:01.315Z,101304.69
2022-09-11T18:13:31.820Z,101307.31
2022-09-11T18:15:58.623Z,101313.13
2022-09-11T18:18:25.746Z,101307.06
2022-09-11T18:20:56.024Z,101315.53
2022-09-11T18:23:23.216Z,101311.63
2022-09-11T18:25:51.514Z,101317.69
2022-09-11T18:28:19.956Z,101308.44
2022-09-11T18:30:47.502Z,101306.38
2022-09-11T18:33:16.661Z,101313.31
2022-09-11T18:35:44.232Z,101303.56
2022-09-11T18:38:10.953Z,101301.16
2022-09-11T18:40:37.620Z,101303.19
2022-09-11T18:43:08.870Z,101302.16
2022-09-11T18:45:36.619Z,101300.66
2022-09-11T18:48:04.592Z,101305.44
2022-09-11T18:50:31.434Z,101304.41
2022-09-11T18:53:00.037Z,101312.28
2022-09-11T18:55:28.855Z,101316.03
2022-09-11T18:57:56.138Z,101311.63
2022-09-11T19:00:22.848Z,101307.22
2022-09-11T19:02:50.201Z,101307.78
2022-09-11T19:05:17.309Z,101307.97
2022-09-11T19:07:44.505Z,101306.28
2022-09-11T19:10:12.600Z,101306.56
2022-09-11T19:12:40.416Z,101305.91
2022-09-11T19:15:10.847Z,101303.59
2022-09-11T19:17:38.288Z,101315.44
2022-09-11T19:20:08.901Z,101317.50
2022-09-11T19:22:35.998Z,101321.59
2022-09-11T19:25:02.598Z,101329.91
2022-09-11T19:27:31.645Z,101329.66
2022-09-11T19:30:00.261Z,101338.97
2022-09-11T19:32:28.125Z,101334.38
2022-09-11T19:34:55.013Z,101338.03
2022-09-11T19:37:21.658Z,101344.50
2022-09-11T19:39:51.920Z,101337.84
2022-09-11T19:42:18.930Z,101339.44
2022-09-11T19:44:45.597Z,101345.34
2022-09-11T19:47:12.194Z,101340.28
2022-09-11T19:49:38.800Z,101347.19
2022-09-11T19:52:06.559Z,101351.13
2022-09-11T19:54:34.781Z,101348.41
2022-09-11T19:57:02.473Z,101343.19
2022-09-11T19:59:29.539Z,101346.56
2022-09-11T20:01:56.435Z,101351.78
2022-09-11T20:04:23.076Z,101349.25
2022-09-11T20:09:32.055Z,101353.00
2022-09-11T20:12:00.989Z,101355.06
2022-09-11T20:14:29.128Z,101348.94
2022-09-11T20:16:55.678Z,101344.56
2022-09-11T20:19:22.260Z,101348.69
2022-09-11T20:21:49.247Z,101345.97
2022-09-11T20:24:15.865Z,101355.00
2022-09-11T20:26:42.582Z,101355.84
2022-09-11T20:29:13.646Z,101351.19
2022-09-11T20:31:47.378Z,101352.84
2022-09-11T20:34:15.431Z,101349.31
2022-09-11T20:36:41.995Z,101353.22
2022-09-11T20:39:12.831Z,101351.34
2022-09-11T20:41:39.545Z,101356.66
2022-09-11T20:44:06.147Z,101349.72
2022-09-11T20:46:32.889Z,101356.78
2022-09-11T20:49:00.814Z,101354.59
2022-09-11T20:51:27.880Z,101362.41
2022-09-11T20:53:55.774Z,101361.06
2022-09-11T20:56:23.872Z,101362.41
2022-09-11T20:58:51.791Z,101361.06
2022-09-11T21:01:21.836Z,101361.25
2022-09-11T21:03:51.564Z,101361.94
2022-09-11T21:06:23.448Z,101362.59
2022-09-11T21:08:54.401Z,101355.50
2022-09-11T21:11:21.391Z,101362.09
2022-09-11T21:13:48.573Z,101362.94
2022-09-11T21:16:17.958Z,101362.09
2022-09-11T21:18:47.353Z,101354.91
2022-09-11T21:21:14.534Z,101362.66
2022-09-11T21:23:41.169Z,101360.13
2022-09-11T21:26:09.159Z,101356.41
2022-09-11T21:28:36.084Z,101357.25
2022-09-11T21:31:03.014Z,101361.81
2022-09-11T21:33:29.909Z,101361.16
2022-09-11T21:35:56.528Z,101365.16
2022-09-11T21:38:25.144Z,101365.53
2022-09-11T21:40:52.136Z,101366.38
2022-09-11T21:43:18.888Z,101359.47
2022-09-11T21:45:45.839Z,101367.28
2022-09-11T21:48:12.514Z,101363.50
2022-09-11T21:50:39.676Z,101360.78
2022-09-11T21:53:07.788Z,101355.94
2022-09-11T21:55:39.918Z,101362.88
2022-09-11T21:58:07.283Z,101361.22
2022-09-11T22:00:42.543Z,101359.47
2022-09-11T22:03:11.128Z,101361.81
2022-09-11T22:05:43.378Z,101360.97
2022-09-11T22:08:12.190Z,101357.44
2022-09-11T22:10:48.713Z,101363.72
2022-09-11T22:13:16.839Z,101355.97
2022-09-11T22:15:47.932Z,101360.38
2022-09-11T22:18:15.433Z,101355.50
2022-09-11T22:20:42.676Z,101361.94
2022-09-11T22:23:14.569Z,101361.94
2022-09-11T22:25:41.253Z,101354.31
2022-09-11T22:28:08.211Z,101357.38
2022-09-11T22:30:34.847Z,101345.28
2022-09-11T22:33:01.811Z,101359.34
2022-09-11T22:35:28.879Z,101347.88
2022-09-11T22:37:55.725Z,101345.53
2022-09-11T22:40:22.308Z,101356.34
2022-09-11T22:42:49.936Z,101363.06
2022-09-11T22:45:17.242Z,101355.97
2022-09-11T22:47:43.816Z,101350.19
2022-09-11T22:50:10.912Z,101355.59
2022-09-11T22:52:37.724Z,101360.19
2022-09-11T22:55:05.943Z,101357.09
2022-09-11T22:57:35.057Z,101360.19
2022-09-11T23:00:02.934Z,101360.19
2022-09-11T23:02:29.509Z,101360.19
2022-09-11T23:05:14.638Z,101358.50
2022-09-11T23:07:42.094Z,101360.91
2022-09-11T23:10:10.040Z,101353.09
2022-09-11T23:12:37.375Z,101360.38
2022-09-11T23:15:04.492Z,101358.44
2022-09-11T23:17:31.065Z,101356.13
2022-09-11T23:19:57.788Z,101364.28
2022-09-11T23:22:26.516Z,101358.03
2022-09-11T23:24:53.453Z,101360.41
2022-09-11T23:27:20.290Z,101364.47
2022-09-11T23:29:47.831Z,101363.78
2022-09-11T23:32:14.639Z,101365.97
2022-09-11T23:34:41.226Z,101363.63
2022-09-11T23:37:07.800Z,101360.19
2022-09-11T23:39:34.459Z,101359.91
2022-09-11T23:42:01.044Z,101357.38
2022-09-11T23:44:27.607Z,101347.91
2022-09-11T23:46:54.430Z,101346.69
2022-09-11T23:49:21.283Z,101350.94
2022-09-11T23:51:49.123Z,101348.41
2022-09-11T23:54:16.007Z,101348.88
2022-09-11T23:56:42.741Z,101336.38
2022-09-11T23:59:09.411Z,101351.78
